首页
METAR-TAF:

METAR-TAF

机场 :

大不里士, 伊朗

纬度: 38-05N, 经度: 046-17E, 海拔: 1367米

当前天气观测

该预报发布于14分钟前的10:00 UTC
风速2节,风向多变
温度 -1°C
湿度 86%
气压 1019 hPa
能見度: 1200
散云层高于1000英尺
散云层高于3000英尺
阴天层高于8000英尺
小雪, 轻雾

METAR: OITT 191000Z VRB02KT 1200 R30/P2000 -SN BR SCT010 SCT030 OVC080 M01/M03 Q1018 A3008 NOSIG

时间: 13:44 (10:14 UTC)

预报

该预报发布于4小时和44分钟前的05:30 UTC
预报有效从19日的 06点(UTC)到 20日的 12点(UTC)
能見度: 0800
散云层高于1000英尺
散云层高于3000英尺
阴天层高于7000英尺
雪, 雾
成为
从 19日的 09点(UTC)到 19日的 11点(UTC)
能見度: 5000
多云层高于2500英尺
轻雾, 雪
成为
从 19日的 14点(UTC)到 19日的 16点(UTC)
能見度: 3000
轻雾
短暂存在
从 19日的 21点(UTC)到 19日的 24点(UTC)
能見度: 0800
多云层高于1500英尺

TAF: OITT 190530Z 1906/2012 0800 SN FG SCT010 SCT030 OVC070 BECMG 1909/1911 5000 BR SN BKN025 BECMG 1914/1916 3000 BR TEMPO 1921/1924 0800 FG BKN015

超过4000个机场的气象观测和天气预报(METAR&TAF报告)。

可查询的气象台以黄色和红色小点在地图上表示。

将鼠标移到小点上方,可查看气象台名称。

然后点击查看天气观测和预报。

如需切换地图:点击带黑十字的绿色按钮放大地图;点击带横线的绿色按钮缩小地图;或者点击绿色箭头查看邻近地区的地图。


METAR-TAF: